Time;durP1;ratioP1;P1;durP2;ratioP2;P2;SDS_P1;SDS_P2;PMS_P1;PMS_P2;Temp;Humidity;BMP_temperature;BMP_pressure;BME280_temperature;BME280_humidity;BME280_pressure;Samples;Min_cycle;Max_cycle;Signal;HPM_P1;HPM_P2
2022/02/16 00:00:07;;;;;;;2.28;0.98;;;5.60;99.90;;;;;;5115283;28;20035;-76
2022/02/16 00:02:33;;;;;;;4.93;1.10;;;5.50;99.90;;;;;;5122870;27;20054;-78
2022/02/16 00:04:58;;;;;;;5.30;1.05;;;5.50;99.90;;;;;;5115373;27;20051;-75
2022/02/16 00:07:24;;;;;;;5.03;2.42;;;5.60;99.90;;;;;;5094491;28;20390;-77
2022/02/16 00:09:49;;;;;;;2.60;0.93;;;5.60;99.90;;;;;;5116521;27;20031;-76
2022/02/16 00:12:15;;;;;;;1.52;0.90;;;5.60;99.90;;;;;;5122578;27;20502;-76
2022/02/16 00:14:40;;;;;;;5.38;0.98;;;5.60;99.90;;;;;;5094383;28;20494;-76
2022/02/16 00:17:06;;;;;;;2.08;1.05;;;5.60;99.90;;;;;;5104789;28;20019;-75
2022/02/16 00:19:32;;;;;;;2.45;0.80;;;5.50;99.90;;;;;;5095753;28;20050;-77
2022/02/16 00:21:57;;;;;;;3.63;1.00;;;5.50;99.90;;;;;;5112265;27;20012;-75
2022/02/16 00:24:23;;;;;;;3.67;1.10;;;5.50;99.90;;;;;;5111323;27;20019;-76
2022/02/16 00:26:48;;;;;;;6.13;3.05;;;5.50;99.90;;;;;;5115480;27;20080;-75
2022/02/16 00:29:14;;;;;;;1.95;0.93;;;5.50;99.90;;;;;;5121542;27;20402;-76
2022/02/16 00:31:41;;;;;;;1.92;0.98;;;5.50;99.90;;;;;;5104557;28;20146;-75
2022/02/16 00:34:07;;;;;;;3.63;1.20;;;5.50;99.90;;;;;;5110304;28;20035;-75
2022/02/16 00:36:33;;;;;;;2.13;1.05;;;5.50;99.90;;;;;;5114283;27;20072;-77
2022/02/16 00:38:59;;;;;;;3.35;0.98;;;5.40;99.90;;;;;;5110976;28;20116;-75
2022/02/16 00:41:25;;;;;;;1.58;0.80;;;5.50;99.90;;;;;;5119200;27;20020;-76
2022/02/16 00:43:50;;;;;;;4.88;1.15;;;5.50;99.90;;;;;;5121856;27;20030;-76
2022/02/16 00:46:16;;;;;;;2.78;1.00;;;5.50;99.90;;;;;;5133409;27;20041;-75
2022/02/16 00:48:42;;;;;;;4.85;1.48;;;5.60;99.90;;;;;;5135868;27;20067;-76
2022/02/16 00:51:08;;;;;;;1.02;0.82;;;5.60;99.90;;;;;;5140626;27;20012;-75
2022/02/16 00:53:33;;;;;;;5.05;1.17;;;5.60;99.90;;;;;;5128909;28;20047;-76
2022/02/16 00:55:59;;;;;;;2.58;1.10;;;5.60;99.90;;;;;;5137790;27;20016;-76
2022/02/16 00:58:24;;;;;;;1.98;0.90;;;5.60;99.90;;;;;;5136219;27;20090;-75
2022/02/16 01:00:50;;;;;;;2.13;1.48;;;5.70;99.90;;;;;;5133047;28;20024;-75
2022/02/16 01:03:16;;;;;;;1.88;0.90;;;5.80;99.90;;;;;;5114315;28;20012;-75
2022/02/16 01:05:41;;;;;;;3.58;2.22;;;5.70;99.90;;;;;;5103549;28;20107;-76
2022/02/16 01:08:08;;;;;;;3.47;1.10;;;5.80;99.90;;;;;;5092733;28;20012;-76
2022/02/16 01:10:34;;;;;;;2.60;1.10;;;5.90;99.90;;;;;;5086296;28;20426;-76
2022/02/16 01:13:00;;;;;;;3.95;1.42;;;5.90;99.90;;;;;;5108999;28;20027;-77
2022/02/16 01:15:25;;;;;;;4.15;1.10;;;5.80;99.90;;;;;;5108233;28;20203;-76
2022/02/16 01:17:51;;;;;;;4.88;1.00;;;5.90;99.90;;;;;;5124484;28;20024;-75
2022/02/16 01:20:16;;;;;;;3.22;1.15;;;5.90;99.90;;;;;;5136722;28;20027;-76
2022/02/16 01:22:42;;;;;;;2.42;1.02;;;5.90;99.90;;;;;;5135810;27;20003;-76
2022/02/16 01:25:08;;;;;;;4.03;1.88;;;6.00;99.90;;;;;;5135158;28;20016;-76
2022/02/16 01:27:33;;;;;;;2.20;1.45;;;5.90;99.90;;;;;;5121646;28;20077;-75
2022/02/16 01:29:59;;;;;;;2.78;1.10;;;6.00;99.90;;;;;;5145415;27;20028;-75
2022/02/16 01:32:24;;;;;;;2.90;1.10;;;6.10;99.90;;;;;;5124692;28;20028;-77
2022/02/16 01:34:50;;;;;;;5.78;1.23;;;6.00;99.90;;;;;;5107680;28;20023;-75
2022/02/16 01:37:15;;;;;;;4.18;0.70;;;6.20;99.90;;;;;;5112002;28;20027;-75
2022/02/16 01:39:41;;;;;;;3.83;1.00;;;6.20;99.90;;;;;;5104325;28;20050;-76
2022/02/16 01:42:07;;;;;;;4.43;0.90;;;6.20;99.90;;;;;;5110926;28;20540;-74
2022/02/16 01:44:32;;;;;;;3.88;1.30;;;6.30;99.90;;;;;;5096283;28;20035;-75
2022/02/16 01:47:04;;;;;;;4.32;0.93;;;6.20;99.90;;;;;;5091375;28;20016;-75
2022/02/16 01:49:31;;;;;;;2.67;1.05;;;6.30;99.90;;;;;;5112668;28;20547;-75
2022/02/16 01:51:58;;;;;;;1.58;0.95;;;6.30;99.90;;;;;;5104970;28;20050;-75
2022/02/16 01:54:24;;;;;;;1.88;0.75;;;6.40;99.90;;;;;;5114688;28;20377;-75
2022/02/16 01:56:50;;;;;;;6.35;0.93;;;6.40;99.90;;;;;;5109214;27;20116;-75
2022/02/16 01:59:22;;;;;;;4.68;1.23;;;6.40;99.90;;;;;;5110214;28;20028;-75
2022/02/16 02:01:48;;;;;;;2.75;0.93;;;6.40;99.90;;;;;;5088351;28;20019;-76
2022/02/16 02:04:16;;;;;;;1.63;0.93;;;6.30;99.90;;;;;;5105930;27;20103;-76
2022/02/16 02:06:42;;;;;;;2.65;1.00;;;6.30;99.90;;;;;;5113572;28;20020;-77
2022/02/16 02:09:07;;;;;;;2.60;0.90;;;6.30;99.90;;;;;;5113624;28;20024;-77
2022/02/16 02:11:33;;;;;;;1.95;0.70;;;6.30;99.90;;;;;;5101392;28;20026;-76
2022/02/16 02:14:02;;;;;;;4.10;1.80;;;6.40;99.90;;;;;;5108620;28;20077;-76
2022/02/16 02:16:28;;;;;;;0.90;0.80;;;6.30;99.90;;;;;;5115350;27;20356;-75
2022/02/16 02:18:55;;;;;;;2.83;1.20;;;6.30;99.90;;;;;;5110868;28;20038;-76
2022/02/16 02:21:21;;;;;;;1.92;0.85;;;6.30;99.90;;;;;;5099857;27;20106;-75
2022/02/16 02:23:47;;;;;;;2.97;1.10;;;6.30;99.90;;;;;;5111717;27;20111;-76
2022/02/16 02:26:13;;;;;;;1.63;0.85;;;6.30;99.90;;;;;;5099272;28;20490;-76
2022/02/16 02:28:39;;;;;;;6.80;2.13;;;6.20;99.90;;;;;;5114438;27;20027;-77
2022/02/16 02:31:05;;;;;;;3.42;0.93;;;6.20;99.90;;;;;;5097286;28;20035;-76
2022/02/16 02:33:31;;;;;;;3.28;0.90;;;6.10;99.90;;;;;;5100254;28;20024;-76
2022/02/16 02:35:57;;;;;;;2.67;0.98;;;6.10;99.90;;;;;;5097544;28;20030;-76
2022/02/16 02:38:23;;;;;;;1.75;0.98;;;6.10;99.90;;;;;;5102145;27;20103;-76
2022/02/16 02:40:57;;;;;;;3.35;0.82;;;6.10;99.90;;;;;;5111358;27;20031;-76
2022/02/16 02:43:25;;;;;;;1.40;0.98;;;6.20;99.90;;;;;;5108605;28;20020;-76
2022/02/16 02:45:51;;;;;;;1.55;0.70;;;6.20;99.90;;;;;;5112909;27;20497;-76
2022/02/16 02:48:20;;;;;;;1.77;0.70;;;6.20;99.90;;;;;;5115858;27;20027;-76
2022/02/16 02:50:45;;;;;;;1.63;0.60;;;6.20;99.90;;;;;;5102642;28;20016;-77
2022/02/16 02:53:11;;;;;;;1.67;0.80;;;6.20;99.90;;;;;;5098394;28;20020;-77
2022/02/16 02:55:36;;;;;;;4.30;0.95;;;6.30;99.90;;;;;;5098027;27;20027;-75
2022/02/16 02:58:02;;;;;;;1.83;0.80;;;6.20;99.90;;;;;;5112594;28;20047;-76
2022/02/16 03:00:28;;;;;;;3.10;0.82;;;6.20;99.90;;;;;;5120789;27;20020;-76
2022/02/16 03:02:54;;;;;;;0.93;0.60;;;6.30;99.90;;;;;;5119759;27;20069;-76
2022/02/16 03:05:19;;;;;;;2.80;0.82;;;6.30;99.90;;;;;;5091883;28;20402;-76
2022/02/16 03:07:46;;;;;;;1.95;0.70;;;6.40;99.90;;;;;;5095560;28;20020;-76
2022/02/16 03:10:12;;;;;;;2.40;1.17;;;6.40;99.90;;;;;;5098853;28;20030;-76
2022/02/16 03:12:37;;;;;;;1.50;0.80;;;6.40;99.90;;;;;;5115459;27;20394;-78
2022/02/16 03:15:04;;;;;;;3.58;0.98;;;6.40;99.90;;;;;;5094551;28;20024;-76
2022/02/16 03:17:29;;;;;;;1.45;0.80;;;6.50;99.90;;;;;;5118732;27;20030;-76
2022/02/16 03:19:55;;;;;;;2.13;0.70;;;6.50;99.90;;;;;;5111834;28;20032;-77
2022/02/16 03:22:21;;;;;;;1.60;0.70;;;6.50;99.90;;;;;;5115329;27;20023;-77
2022/02/16 03:24:46;;;;;;;6.50;0.88;;;6.40;99.90;;;;;;5098766;28;20114;-77
2022/02/16 03:27:12;;;;;;;2.08;0.68;;;6.50;99.90;;;;;;5092146;28;20382;-75
2022/02/16 03:29:37;;;;;;;2.60;0.80;;;6.50;99.90;;;;;;5109540;28;20020;-76
2022/02/16 03:32:03;;;;;;;3.15;0.68;;;6.60;99.90;;;;;;5097888;28;20039;-76
2022/02/16 03:34:29;;;;;;;1.27;0.63;;;6.60;99.90;;;;;;5121085;27;20059;-75
2022/02/16 03:36:55;;;;;;;2.28;0.60;;;6.50;99.90;;;;;;5114171;27;20028;-76
2022/02/16 03:39:20;;;;;;;3.30;0.77;;;6.60;99.90;;;;;;5123976;27;20020;-76
2022/02/16 03:41:46;;;;;;;1.23;0.80;;;6.50;99.90;;;;;;5104458;28;20015;-77
2022/02/16 03:44:12;;;;;;;1.45;0.50;;;6.50;99.90;;;;;;5096419;28;20016;-77
2022/02/16 03:46:37;;;;;;;1.90;0.68;;;6.50;99.90;;;;;;5116608;27;20073;-76
2022/02/16 03:49:03;;;;;;;2.10;0.50;;;6.60;99.90;;;;;;5109097;27;20024;-76
2022/02/16 03:51:29;;;;;;;1.98;0.57;;;6.50;99.90;;;;;;5096686;28;20024;-76
2022/02/16 03:53:55;;;;;;;0.93;0.70;;;6.50;99.90;;;;;;5090350;27;20031;-76
2022/02/16 03:56:20;;;;;;;3.17;0.60;;;6.50;99.90;;;;;;5094589;28;20149;-77
2022/02/16 03:58:46;;;;;;;1.13;0.63;;;6.60;99.90;;;;;;5108797;28;20022;-76
2022/02/16 04:01:11;;;;;;;4.03;0.60;;;6.50;99.90;;;;;;5114526;27;20028;-77
2022/02/16 04:03:37;;;;;;;1.98;0.80;;;6.50;99.90;;;;;;5111170;27;20463;-78
2022/02/16 04:06:03;;;;;;;0.80;0.70;;;6.60;99.90;;;;;;5114239;27;20016;-77
2022/02/16 04:08:29;;;;;;;0.85;0.70;;;6.60;99.90;;;;;;5104287;27;20019;-77
2022/02/16 04:10:54;;;;;;;2.25;0.60;;;6.50;99.90;;;;;;5118181;27;20038;-76
2022/02/16 04:13:20;;;;;;;2.35;0.70;;;6.60;99.90;;;;;;5109881;27;20031;-77
2022/02/16 04:15:45;;;;;;;1.20;0.57;;;6.60;99.90;;;;;;5111028;28;20019;-77
2022/02/16 04:18:11;;;;;;;1.67;0.50;;;6.60;99.90;;;;;;5111228;27;20024;-78
2022/02/16 04:20:37;;;;;;;1.17;0.60;;;6.70;99.90;;;;;;5091174;28;20023;-76
2022/02/16 04:23:04;;;;;;;0.63;0.57;;;6.70;99.90;;;;;;5115186;27;20355;-78
2022/02/16 04:25:29;;;;;;;2.05;0.50;;;6.80;99.90;;;;;;5099080;28;20018;-78
2022/02/16 04:27:55;;;;;;;2.03;0.47;;;6.80;99.90;;;;;;5116737;27;20024;-76
2022/02/16 04:30:20;;;;;;;1.13;0.50;;;6.80;99.90;;;;;;5112494;27;20102;-76
2022/02/16 04:32:46;;;;;;;1.58;0.40;;;6.70;99.90;;;;;;5112233;27;20034;-76
2022/02/16 04:35:12;;;;;;;1.88;0.70;;;6.70;99.90;;;;;;5116260;27;20024;-77
2022/02/16 04:37:37;;;;;;;1.70;0.70;;;6.70;99.90;;;;;;5103101;28;20367;-76
2022/02/16 04:40:05;;;;;;;2.55;0.70;;;6.80;99.90;;;;;;5111242;27;20019;-76
2022/02/16 04:42:30;;;;;;;4.82;0.52;;;6.70;99.90;;;;;;5100375;28;20026;-78
2022/02/16 04:44:56;;;;;;;1.83;0.40;;;6.80;99.90;;;;;;5115639;27;20024;-77
2022/02/16 04:47:21;;;;;;;2.22;0.80;;;6.80;99.90;;;;;;5121144;27;20016;-77
2022/02/16 04:49:47;;;;;;;0.60;0.40;;;6.90;99.90;;;;;;5115323;27;20047;-76
2022/02/16 04:52:12;;;;;;;1.05;0.43;;;6.80;99.90;;;;;;5109904;27;20016;-76
2022/02/16 04:54:39;;;;;;;1.25;0.40;;;6.90;99.90;;;;;;5111955;28;20065;-77
2022/02/16 04:57:05;;;;;;;0.98;0.40;;;6.90;99.90;;;;;;5111521;28;20086;-75
2022/02/16 04:59:31;;;;;;;3.25;0.70;;;6.90;99.90;;;;;;5111780;27;20507;-78
2022/02/16 05:01:57;;;;;;;0.57;0.40;;;6.90;99.90;;;;;;5096621;28;20107;-76
2022/02/16 05:04:22;;;;;;;0.68;0.52;;;6.90;99.90;;;;;;5087792;28;20074;-76
2022/02/16 05:06:48;;;;;;;0.70;0.35;;;7.00;99.90;;;;;;5108914;27;20031;-76
2022/02/16 05:09:13;;;;;;;0.95;0.50;;;6.90;99.90;;;;;;5079670;28;20027;-76
2022/02/16 05:11:39;;;;;;;0.40;0.40;;;7.00;99.90;;;;;;5109130;27;20019;-77
2022/02/16 05:14:05;;;;;;;1.08;0.52;;;6.90;99.90;;;;;;5121184;27;20141;-77
2022/02/16 05:16:30;;;;;;;1.00;0.73;;;6.90;99.90;;;;;;5102322;28;20020;-77
2022/02/16 05:18:56;;;;;;;0.50;0.40;;;6.90;99.90;;;;;;5106329;28;20031;-77
2022/02/16 05:21:23;;;;;;;1.95;0.40;;;6.90;99.90;;;;;;5110918;27;20356;-75
2022/02/16 05:23:48;;;;;;;0.40;0.40;;;6.90;99.90;;;;;;5114034;28;20566;-76
2022/02/16 05:26:14;;;;;;;1.98;0.38;;;6.90;99.90;;;;;;5111632;27;20063;-75
2022/02/16 05:28:40;;;;;;;0.80;0.55;;;6.90;99.90;;;;;;5112373;27;20383;-78
2022/02/16 05:31:05;;;;;;;1.52;0.50;;;6.90;99.90;;;;;;5112315;28;20032;-76
2022/02/16 05:33:31;;;;;;;2.67;0.80;;;6.90;99.90;;;;;;5115713;28;20019;-77
2022/02/16 05:35:56;;;;;;;0.68;0.35;;;6.90;99.90;;;;;;5095851;28;20106;-77
2022/02/16 05:38:22;;;;;;;1.10;0.40;;;6.80;99.90;;;;;;5091862;28;20123;-76
2022/02/16 05:40:48;;;;;;;1.42;0.50;;;6.90;99.90;;;;;;5104206;28;20098;-77
2022/02/16 05:43:14;;;;;;;0.90;0.52;;;7.10;99.90;;;;;;5094258;28;20039;-78
2022/02/16 05:45:43;;;;;;;2.35;0.50;;;7.00;99.90;;;;;;5093586;28;20448;-77
2022/02/16 05:48:09;;;;;;;0.65;0.40;;;7.00;99.90;;;;;;5107582;28;20031;-78
2022/02/16 05:50:35;;;;;;;1.77;0.63;;;7.10;99.90;;;;;;5113340;28;20027;-76
2022/02/16 05:53:01;;;;;;;0.80;0.70;;;6.90;99.90;;;;;;5116667;27;20478;-75
2022/02/16 05:55:26;;;;;;;2.22;0.30;;;6.90;99.90;;;;;;5113041;27;20037;-76
2022/02/16 05:57:52;;;;;;;0.47;0.47;;;7.00;99.90;;;;;;5114916;27;20030;-78
2022/02/16 06:00:18;;;;;;;3.03;1.13;;;7.00;99.90;;;;;;5097338;28;20032;-77
2022/02/16 06:02:43;;;;;;;0.40;0.40;;;6.90;99.90;;;;;;5103192;28;20020;-76
2022/02/16 06:05:09;;;;;;;2.80;0.70;;;6.90;99.90;;;;;;5096178;28;20068;-76
2022/02/16 06:07:35;;;;;;;0.52;0.45;;;6.90;99.90;;;;;;5114839;28;20513;-76
2022/02/16 06:10:00;;;;;;;1.52;0.50;;;6.90;99.90;;;;;;5115354;27;20019;-76
2022/02/16 06:12:26;;;;;;;1.20;0.65;;;7.00;99.90;;;;;;5111180;28;20120;-77
2022/02/16 06:14:51;;;;;;;0.80;0.50;;;7.00;99.90;;;;;;5096738;28;20028;-75
2022/02/16 06:17:17;;;;;;;0.82;0.40;;;7.00;99.90;;;;;;5098839;28;20024;-75
2022/02/16 06:19:42;;;;;;;1.40;0.80;;;7.00;99.90;;;;;;5113211;27;20061;-76
2022/02/16 06:22:09;;;;;;;1.58;0.70;;;7.00;99.90;;;;;;5115244;27;20024;-76
2022/02/16 06:24:36;;;;;;;0.73;0.50;;;7.00;99.90;;;;;;5108661;28;20055;-75
2022/02/16 06:27:02;;;;;;;0.82;0.40;;;7.00;99.90;;;;;;5108269;28;20493;-76
2022/02/16 06:29:27;;;;;;;2.72;1.25;;;7.00;99.90;;;;;;5116017;28;20019;-77
2022/02/16 06:31:53;;;;;;;1.17;0.50;;;7.00;99.90;;;;;;5119379;27;20483;-76
2022/02/16 06:34:18;;;;;;;1.88;0.73;;;7.00;99.90;;;;;;5113367;27;20444;-77
2022/02/16 06:36:44;;;;;;;3.10;0.68;;;7.10;99.90;;;;;;5107921;28;20539;-76
2022/02/16 06:39:09;;;;;;;1.10;0.60;;;7.00;99.90;;;;;;5114834;27;20376;-77
2022/02/16 06:41:35;;;;;;;1.63;0.45;;;7.10;99.90;;;;;;5103400;28;20664;-77
2022/02/16 06:44:01;;;;;;;0.40;0.40;;;7.10;99.90;;;;;;5097328;28;20379;-76
2022/02/16 06:46:27;;;;;;;2.15;0.55;;;7.10;99.90;;;;;;5113724;27;20102;-76
2022/02/16 06:48:52;;;;;;;1.90;0.38;;;7.20;99.90;;;;;;5119065;27;20109;-76
2022/02/16 06:51:18;;;;;;;1.45;0.50;;;7.10;99.90;;;;;;5112023;27;20028;-76
2022/02/16 06:53:44;;;;;;;0.52;0.50;;;7.20;99.90;;;;;;5090389;28;20487;-76
2022/02/16 06:56:10;;;;;;;8.27;1.50;;;7.20;99.90;;;;;;5091578;28;20450;-76
2022/02/16 06:58:36;;;;;;;3.03;0.80;;;7.30;99.90;;;;;;5117988;27;20104;-77
2022/02/16 07:01:01;;;;;;;2.03;0.60;;;7.30;99.90;;;;;;5106697;27;20094;-76
2022/02/16 07:03:27;;;;;;;0.90;0.40;;;7.30;99.90;;;;;;5110456;28;20031;-77
2022/02/16 07:05:52;;;;;;;1.25;0.60;;;7.40;99.90;;;;;;5113528;28;20031;-76
2022/02/16 07:08:18;;;;;;;0.80;0.50;;;7.30;99.90;;;;;;5121054;27;20050;-76
2022/02/16 07:10:46;;;;;;;1.23;0.50;;;7.30;99.90;;;;;;5118834;27;20028;-77
2022/02/16 07:13:12;;;;;;;2.65;0.60;;;7.30;99.90;;;;;;5109654;27;20016;-76
2022/02/16 07:15:37;;;;;;;0.98;0.60;;;7.30;99.90;;;;;;5100647;28;20019;-77
2022/02/16 07:18:03;;;;;;;2.05;0.50;;;7.30;99.90;;;;;;5124917;27;20080;-77
2022/02/16 07:20:29;;;;;;;1.00;0.57;;;7.30;99.90;;;;;;5115080;27;20402;-76
2022/02/16 07:22:55;;;;;;;0.85;0.45;;;7.30;99.90;;;;;;5099364;27;20030;-76
2022/02/16 07:25:21;;;;;;;1.15;0.60;;;7.30;99.90;;;;;;5112733;27;20020;-76
2022/02/16 07:27:46;;;;;;;3.90;0.70;;;7.30;99.90;;;;;;5107722;28;20019;-76
2022/02/16 07:30:13;;;;;;;1.33;0.50;;;7.30;99.90;;;;;;5111372;27;20027;-76
2022/02/16 07:32:40;;;;;;;2.13;1.48;;;7.20;99.90;;;;;;5113877;27;20024;-76
2022/02/16 07:35:07;;;;;;;1.08;0.60;;;7.20;99.90;;;;;;5090734;28;20107;-76
2022/02/16 07:37:34;;;;;;;1.08;0.50;;;7.30;99.90;;;;;;5113961;27;20034;-76
2022/02/16 07:40:00;;;;;;;1.02;0.60;;;7.30;99.90;;;;;;5105243;27;20036;-75
2022/02/16 07:42:28;;;;;;;1.05;0.68;;;7.30;99.90;;;;;;5107211;28;20535;-75
2022/02/16 07:44:54;;;;;;;1.08;0.70;;;7.30;99.90;;;;;;5112833;28;20027;-76
2022/02/16 07:47:21;;;;;;;1.75;0.57;;;7.20;99.90;;;;;;5110041;28;20028;-76
2022/02/16 07:49:47;;;;;;;1.75;1.27;;;7.20;99.90;;;;;;5121606;27;20067;-77
2022/02/16 07:52:12;;;;;;;1.35;0.52;;;7.10;99.90;;;;;;5113512;27;20092;-75
2022/02/16 07:54:38;;;;;;;1.35;0.60;;;7.20;99.90;;;;;;5093830;28;20054;-77
2022/02/16 07:57:04;;;;;;;2.08;0.80;;;7.20;99.90;;;;;;5092130;28;20044;-76
2022/02/16 07:59:29;;;;;;;1.75;1.05;;;7.20;99.90;;;;;;5114626;27;20166;-76
2022/02/16 08:01:56;;;;;;;0.68;0.57;;;7.20;99.90;;;;;;5098787;27;20027;-76
2022/02/16 08:04:24;;;;;;;3.50;0.50;;;7.20;99.90;;;;;;5096600;27;20018;-75
2022/02/16 08:06:52;;;;;;;2.90;0.75;;;7.10;99.90;;;;;;5094394;28;20027;-76
2022/02/16 08:09:17;;;;;;;2.40;0.60;;;7.20;99.90;;;;;;5108705;28;20035;-76
2022/02/16 08:11:45;;;;;;;0.52;0.50;;;7.20;99.90;;;;;;5107365;27;20024;-76
2022/02/16 08:14:12;;;;;;;1.33;0.73;;;7.20;99.90;;;;;;5096087;28;20034;-76
2022/02/16 08:16:38;;;;;;;1.63;0.90;;;7.30;99.90;;;;;;5094778;28;20023;-76
2022/02/16 08:19:06;;;;;;;1.52;0.60;;;7.10;99.90;;;;;;5116584;27;20033;-75
2022/02/16 08:21:32;;;;;;;1.45;0.77;;;7.10;99.90;;;;;;5096285;27;20015;-76
2022/02/16 08:23:58;;;;;;;0.93;0.70;;;7.20;99.90;;;;;;5118134;27;20031;-75
2022/02/16 08:26:24;;;;;;;0.80;0.70;;;7.10;99.90;;;;;;5109723;28;20030;-75
2022/02/16 08:28:49;;;;;;;4.63;1.33;;;7.10;99.90;;;;;;5110723;28;20034;-76
2022/02/16 08:31:15;;;;;;;0.88;0.57;;;7.10;99.90;;;;;;5090834;28;20032;-76
2022/02/16 08:33:40;;;;;;;1.30;0.82;;;7.20;99.90;;;;;;5114136;27;20058;-76
2022/02/16 08:36:07;;;;;;;1.35;0.55;;;7.20;99.90;;;;;;5089651;28;20043;-76
2022/02/16 08:38:34;;;;;;;3.40;0.70;;;7.10;99.90;;;;;;5117764;27;20073;-76
2022/02/16 08:40:59;;;;;;;1.23;0.65;;;7.10;99.90;;;;;;5095382;28;20050;-75
2022/02/16 08:43:28;;;;;;;3.17;0.77;;;7.10;99.90;;;;;;5094995;28;20020;-77
2022/02/16 08:45:54;;;;;;;2.72;0.50;;;7.20;99.90;;;;;;5096906;28;20028;-76
2022/02/16 08:48:23;;;;;;;1.20;0.40;;;7.20;99.90;;;;;;5114433;27;20020;-77
2022/02/16 08:50:50;;;;;;;1.88;0.90;;;7.10;99.90;;;;;;5093997;28;20394;-75
2022/02/16 08:53:16;;;;;;;1.83;0.80;;;7.10;99.90;;;;;;5110905;28;20027;-76
2022/02/16 08:55:41;;;;;;;1.90;1.08;;;7.20;99.90;;;;;;5096238;28;20504;-76
2022/02/16 08:58:09;;;;;;;0.77;0.70;;;7.20;99.90;;;;;;5090576;28;20030;-76
2022/02/16 09:00:35;;;;;;;2.40;0.68;;;7.20;99.90;;;;;;5116233;27;20031;-75
2022/02/16 09:03:01;;;;;;;0.60;0.55;;;7.30;99.90;;;;;;5108902;28;20067;-75
2022/02/16 09:05:27;;;;;;;0.85;0.57;;;7.50;99.90;;;;;;5107018;27;20047;-75
2022/02/16 09:07:52;;;;;;;1.75;1.00;;;7.30;99.90;;;;;;5109021;28;20106;-76
2022/02/16 09:10:18;;;;;;;2.42;0.73;;;7.30;99.90;;;;;;5114364;27;20028;-77
2022/02/16 09:12:56;;;;;;;2.03;0.90;;;7.30;99.90;;;;;;5090541;28;20023;-76
2022/02/16 09:15:25;;;;;;;1.13;0.80;;;7.30;99.90;;;;;;5125075;27;20069;-76
2022/02/16 09:17:52;;;;;;;4.05;0.65;;;7.30;99.90;;;;;;5117460;27;20061;-77
2022/02/16 09:20:18;;;;;;;0.95;0.55;;;7.20;99.90;;;;;;5113934;28;20042;-76
2022/02/16 09:22:44;;;;;;;1.40;0.60;;;7.30;99.90;;;;;;5098512;28;20082;-77
2022/02/16 09:25:11;;;;;;;2.58;0.82;;;7.30;99.90;;;;;;5118417;27;20109;-75
2022/02/16 09:27:36;;;;;;;1.10;0.70;;;7.40;99.90;;;;;;5096544;28;20055;-76
2022/02/16 09:30:03;;;;;;;1.67;0.50;;;7.50;99.90;;;;;;5119068;28;20058;-76
2022/02/16 09:32:29;;;;;;;0.70;0.65;;;7.50;99.90;;;;;;5117977;28;20066;-76
2022/02/16 09:34:55;;;;;;;0.95;0.50;;;7.60;99.90;;;;;;5105614;28;20040;-77
2022/02/16 09:37:21;;;;;;;0.80;0.50;;;7.50;99.90;;;;;;5103829;28;20031;-76
2022/02/16 09:39:46;;;;;;;0.50;0.50;;;7.50;99.90;;;;;;5090634;28;20065;-76
2022/02/16 09:42:12;;;;;;;1.05;0.93;;;7.50;99.90;;;;;;5105464;28;20517;-76
2022/02/16 09:44:44;;;;;;;0.85;0.60;;;7.60;99.90;;;;;;5110315;28;20016;-77
2022/02/16 09:47:10;;;;;;;6.18;0.60;;;7.60;99.90;;;;;;5091474;28;20027;-76
2022/02/16 09:49:38;;;;;;;1.33;0.40;;;7.80;99.90;;;;;;5110999;28;20062;-77
2022/02/16 09:52:06;;;;;;;0.65;0.45;;;8.00;99.90;;;;;;5113502;28;20023;-75
2022/02/16 09:54:32;;;;;;;1.30;0.50;;;7.90;99.90;;;;;;5098985;28;20051;-78
2022/02/16 09:56:57;;;;;;;1.17;0.50;;;7.80;99.90;;;;;;5095223;28;20479;-78
2022/02/16 09:59:24;;;;;;;0.85;0.50;;;7.80;99.90;;;;;;5100353;27;20095;-78
2022/02/16 10:01:57;;;;;;;0.43;0.40;;;7.90;99.90;;;;;;5122930;28;20026;-79
2022/02/16 10:04:23;;;;;;;0.63;0.50;;;8.00;99.90;;;;;;5110273;28;20099;-78
2022/02/16 10:06:49;;;;;;;1.52;0.50;;;8.00;99.90;;;;;;5122674;28;20446;-78
2022/02/16 10:09:32;;;;;;;0.55;0.43;;;8.10;99.90;;;;;;5104185;28;20023;-79
2022/02/16 10:12:02;;;;;;;2.20;0.50;;;8.20;99.90;;;;;;5118510;28;20032;-78
2022/02/16 10:14:30;;;;;;;1.25;0.35;;;8.20;99.90;;;;;;5117136;28;20047;-79
2022/02/16 10:17:02;;;;;;;0.68;0.40;;;8.40;99.90;;;;;;5122800;28;20053;-81
2022/02/16 10:19:55;;;;;;;0.90;0.50;;;8.50;99.90;;;;;;5121282;28;20039;-79
2022/02/16 10:22:25;;;;;;;0.52;0.35;;;8.50;99.90;;;;;;5121509;28;20035;-79
2022/02/16 10:24:52;;;;;;;2.85;0.52;;;8.50;99.90;;;;;;5096752;28;20019;-79
2022/02/16 10:27:18;;;;;;;0.95;0.40;;;8.60;99.90;;;;;;5125525;28;20512;-78
2022/02/16 10:29:45;;;;;;;0.40;0.40;;;8.60;99.90;;;;;;5100332;28;20150;-78
2022/02/16 10:32:28;;;;;;;0.40;0.40;;;8.70;99.90;;;;;;5105528;28;20139;-79
2022/02/16 10:34:56;;;;;;;1.77;0.30;;;8.70;99.90;;;;;;5125304;28;20028;-80
2022/02/16 10:37:29;;;;;;;4.47;0.82;;;8.70;99.90;;;;;;5102112;28;20027;-79
2022/02/16 10:39:59;;;;;;;3.95;0.50;;;8.80;99.90;;;;;;5103136;28;20051;-79
2022/02/16 10:42:25;;;;;;;1.00;0.50;;;8.80;99.90;;;;;;5108636;28;20020;-77
2022/02/16 10:45:08;;;;;;;0.47;0.40;;;8.90;99.90;;;;;;5114652;27;20020;-78
2022/02/16 10:47:54;;;;;;;0.77;0.50;;;9.20;99.90;;;;;;5113665;27;20019;-76
2022/02/16 10:50:21;;;;;;;0.30;0.30;;;9.20;99.90;;;;;;5132957;27;20027;-80
2022/02/16 10:53:11;;;;;;;0.98;0.47;;;9.30;99.90;;;;;;5106444;28;20388;-79
2022/02/16 10:55:43;;;;;;;0.50;0.38;;;9.30;99.90;;;;;;5108443;28;20031;-78
2022/02/16 10:58:13;;;;;;;0.73;0.50;;;9.40;99.90;;;;;;5102775;28;20027;-78
2022/02/16 11:00:40;;;;;;;0.57;0.47;;;9.60;99.90;;;;;;5099307;28;20490;-79
2022/02/16 11:03:08;;;;;;;0.90;0.60;;;9.60;99.90;;;;;;5099064;27;20036;-79
2022/02/16 11:05:44;;;;;;;0.45;0.40;;;10.00;99.90;;;;;;5104735;28;20036;-79
2022/02/16 11:08:13;;;;;;;2.30;0.45;;;10.00;99.90;;;;;;5117168;27;20031;-79
2022/02/16 11:10:49;;;;;;;0.50;0.50;;;10.00;99.90;;;;;;5128701;27;20098;-80
2022/02/16 11:13:26;;;;;;;0.77;0.40;;;10.00;99.90;;;;;;5121618;27;20020;-78
2022/02/16 11:15:52;;;;;;;0.50;0.45;;;10.20;99.90;;;;;;5131997;27;20474;-79
2022/02/16 11:18:22;;;;;;;0.50;0.50;;;10.20;99.90;;;;;;5096701;28;20023;-78
2022/02/16 11:21:11;;;;;;;0.43;0.40;;;10.20;99.90;;;;;;5099737;28;20027;-78
2022/02/16 11:23:42;;;;;;;0.43;0.40;;;10.20;99.90;;;;;;5096899;28;20027;-77
2022/02/16 11:26:26;;;;;;;;;;;10.40;99.90;;;;;;5122026;27;20018;-79
2022/02/16 11:28:52;;;;;;;0.70;0.30;;;10.50;99.90;;;;;;5096102;28;19995;-78
2022/02/16 11:31:33;;;;;;;0.63;0.40;;;10.70;99.90;;;;;;5116843;27;20051;-78
2022/02/16 11:34:11;;;;;;;0.77;0.50;;;10.80;99.90;;;;;;5098874;28;20031;-79
2022/02/16 11:37:02;;;;;;;0.60;0.40;;;11.00;99.90;;;;;;5097689;28;20393;-77
2022/02/16 11:39:50;;;;;;;0.47;0.40;;;11.00;99.90;;;;;;5121332;27;20088;-78
2022/02/16 11:42:47;;;;;;;0.30;0.30;;;11.00;99.90;;;;;;5122789;27;20046;-79
2022/02/16 11:45:37;;;;;;;0.32;0.20;;;11.10;99.90;;;;;;5097259;28;20030;-79
2022/02/16 11:48:03;;;;;;;2.25;0.60;;;11.10;99.90;;;;;;5109843;27;20023;-77
2022/02/16 11:50:29;;;;;;;1.23;0.30;;;10.90;99.90;;;;;;5120885;27;20024;-77
2022/02/16 11:52:54;;;;;;;0.60;0.40;;;11.10;99.90;;;;;;5109238;28;20030;-79
2022/02/16 11:55:43;;;;;;;0.52;0.40;;;11.00;99.90;;;;;;5107899;28;20030;-78
2022/02/16 11:58:16;;;;;;;0.55;0.50;;;11.00;99.90;;;;;;5088998;27;20039;-78
2022/02/16 12:00:56;;;;;;;1.33;0.43;;;10.90;99.90;;;;;;5107204;28;20036;-78
2022/02/16 12:03:25;;;;;;;0.47;0.47;;;11.10;99.90;;;;;;5121959;27;20023;-78
2022/02/16 12:05:57;;;;;;;0.88;0.50;;;11.10;99.90;;;;;;5107880;28;20015;-77
2022/02/16 12:08:44;;;;;;;0.50;0.40;;;11.00;99.90;;;;;;5126122;27;20095;-79
2022/02/16 12:11:12;;;;;;;0.43;0.30;;;11.10;99.90;;;;;;5098923;27;20023;-78
2022/02/16 12:14:02;;;;;;;1.85;0.52;;;11.20;99.90;;;;;;5102875;27;20023;-77
2022/02/16 12:16:30;;;;;;;1.95;0.30;;;11.30;99.90;;;;;;5119773;27;20463;-79
2022/02/16 12:19:00;;;;;;;0.22;0.20;;;11.20;99.90;;;;;;5103070;28;20114;-78
2022/02/16 12:21:39;;;;;;;0.73;0.30;;;11.10;99.90;;;;;;5114891;28;20066;-80
2022/02/16 12:24:08;;;;;;;1.00;0.85;;;11.20;99.90;;;;;;5105663;27;20101;-77
2022/02/16 12:26:52;;;;;;;1.73;0.35;;;11.30;99.90;;;;;;5102407;27;20020;-78
2022/02/16 12:29:19;;;;;;;0.28;0.28;;;11.30;99.90;;;;;;5106805;28;20607;-81
2022/02/16 12:31:49;;;;;;;0.47;0.43;;;11.20;99.90;;;;;;5125167;27;20042;-81
2022/02/16 12:34:23;;;;;;;1.60;0.20;;;11.20;99.90;;;;;;5107565;28;20019;-78
2022/02/16 12:36:53;;;;;;;0.22;0.22;;;11.00;99.90;;;;;;5099308;28;20024;-78
2022/02/16 12:39:19;;;;;;;0.40;0.40;;;11.10;99.90;;;;;;5116160;27;20087;-75
2022/02/16 12:41:49;;;;;;;0.45;0.30;;;11.00;99.90;;;;;;5101876;28;20129;-80
2022/02/16 12:44:21;;;;;;;0.57;0.57;;;11.00;99.90;;;;;;5099020;28;20020;-78
2022/02/16 12:46:49;;;;;;;0.45;0.45;;;11.00;99.90;;;;;;5122918;27;20069;-77
2022/02/16 12:49:17;;;;;;;0.30;0.30;;;11.00;99.90;;;;;;5102330;28;20380;-78
2022/02/16 12:51:45;;;;;;;1.38;0.30;;;11.10;99.90;;;;;;5115822;27;20364;-80
2022/02/16 12:54:16;;;;;;;0.40;0.40;;;11.10;99.90;;;;;;5104360;27;20080;-77
2022/02/16 12:56:44;;;;;;;0.82;0.30;;;11.20;99.90;;;;;;5099703;27;20168;-78